Tiempo atmosférico en la estación meteorológica de Ciudad Real, Ciudad Real (628 m.)



Fecha
DESCASC
Temp. máxima en grados centígrados (hora)
DESCASC
Temp. mínima en grados centígrados (hora)
DESCASC
Temp. media en grados centígrados
DESCASC
Racha de viento máxima en m/sg (hora)
DESCASC
Velocidad máxima media en intervalos de 10 minutos(hora)
DESCASC
Precipitaciones diarias en mm
DESCASC
Precipitaciones de 00:00 a 06:00 en mm
DESCASC
Precipitaciones de 06:00 a 12:00 en mm
DESCASC
Precipitaciones de 12:00 a 18:00 en mm
DESCASC
Precipitaciones de 18:00 a 24:00 en mm
DESCASC
08-12-2019 10.8 (16:10) 4.2 (09:40) 7.5 4.72 (17:50) 2.78 (17:50) 0.2 0 0 0 0.2
07-12-2019 8.8 (16:10) 3.7 (04:40) 6.3 4.72 (07:40) 2.5 (06:50) 0 0 0 0 0
06-12-2019 12.7 (15:00) 5.6 (08:30) 9.1 7.78 (04:20) 4.17 (16:00) 0 0 0 0 0
05-12-2019 12 (15:00) 6.1 (00:00) 9 11.39 (13:30) 6.11 (13:30) 0 0 0 0 0
04-12-2019 10.2 (13:30) 4.3 (00:00) 7.3 4.72 (17:10) 2.5 (17:10) 2.6 0 0.2 2.2 0.2
03-12-2019 9.2 (12:40) 5.8 (00:00) 7.5 11.67 (13:20) 5.83 (20:10) 0 0 0 0 0
02-12-2019 10.1 (15:20) 6 (00:00) 8.1 11.94 (14:10) 6.67 (17:40) 1.4 0.2 0.8 0.4 0
01-12-2019 12.3 (15:10) 6 (00:00) 9.2 8.61 (00:20) 3.89 (00:20) 6.8 0.4 0 4.6 1.8
30-11-2019 16 (15:10) 9.1 (00:00) 12.6 8.33 (15:00) 4.17 (15:00) 0 0 0 0 0
29-11-2019 14.1 (14:10) 10.4 (00:00) 12.3 6.39 (05:50) 3.61 (05:40) 0 0 0 0 0
28-11-2019 12.8 (15:50) 8.3 (00:00) 10.6 8.06 (12:40) 3.61 (23:40) 0 0 0 0 0
27-11-2019 14.2 (14:40) 9.2 (00:00) 11.7 9.44 (13:40) 4.44 (12:00) 0 0 0 0 0
26-11-2019 15.1 (14:50) 10.8 (00:00) 13 8.61 (20:50) 4.17 (21:00) 0.4 0 0 0.2 0.2
25-11-2019 15.2 (16:00) 9.3 (00:00) 12.3 8.33 (15:20) 4.17 (16:00) 1.4 0 1.2 0.2 0
24-11-2019 11.5 (14:50) 3.1 (00:00) 7.3 7.78 (16:20) 3.61 (16:30) 0 0 0 0 0
23-11-2019 12.2 (13:50) 6.7 (00:00) 9.4 15.28 (02:20) 5.83 (00:30) 5.8 5.8 0 0 0
22-11-2019 13.1 (17:00) 8.7 (00:00) 10.9 11.94 (15:00) 5.56 (23:59) 17.6 0.6 0.2 16.2 0.6
21-11-2019 11 (13:00) 7.1 (00:00) 9 7.22 (13:50) 3.61 (14:00) 3 0.4 0 1.4 1.2
20-11-2019 9.3 (14:00) 1.5 (00:00) 5.4 5.83 (14:00) 2.78 (14:50) 6.2 0 0 5.8 0.4
19-11-2019 11.2 (14:40) -0.2 (00:00) 5.5 5.28 (15:10) 2.5 (15:10) 0 0 0 0 0
18-11-2019 12.5 (13:50) 3.6 (00:00) 8 7.22 (01:20) 4.44 (01:30) 0.2 0.2 0 0 0
17-11-2019 9 (19:10) 2.5 (00:00) 5.8 8.61 (15:00) 4.17 (16:30) 13.4 0 0 0 13.4
16-11-2019 11.3 (14:30) 0.4 (00:00) 5.9 6.94 (17:00) 3.89 (17:00) 0 0 0 0 0
15-11-2019 10.3 (14:00) 2.8 (00:00) 6.6 9.17 (00:40) 4.17 (10:10) 0 0 0 0 0
14-11-2019 11.8 (00:00) 7 (00:00) 9.4 14.72 (17:10) 5.83 (04:50) 2.8 0 2.8 0 0
13-11-2019 18 (15:20) 9.9 (00:00) 13.9 12.22 (03:10) 5.83 (05:20) 0 0 0 0 0
12-11-2019 13.4 (14:50) 5.6 (00:00) 9.5 7.22 (23:10) 3.61 (23:20) 0 0 0 0 0
11-11-2019 12 (16:50) 5 (04:50) 8.5 8.61 (11:00) 4.44 (11:00) 0 0 0 0 0

Gráficas

Temp. máximas Temp. mínimas Temp. medias Precipitaciones Rachas de viento máximas Velocidades máximas media en intervalos de 10 minutos

Datos horarios

Fecha y hora oficial Temperatura (ºC) Velocidad del viento (km/h) Dirección del viento Racha (km/h) Dirección de racha Precipitación (mm) Presión (hPa) Tendencia (hPa) Humedad (%)
2019-12-10 23:00:00 3.6 3 Sudeste 5 Noroeste 0 952.5 -0.3 95
2019-12-10 22:00:00 4.3 2 Noroeste 5 Noroeste 0 952.6 -0.3 93
2019-12-10 21:00:00 5.2 0 Calma 7 Sudoeste 0 952.7 -0.4 92
2019-12-10 20:00:00 6 3 Sur 4 Sur 0 952.8 -0.3 91
2019-12-10 19:00:00 7.2 3 Sur 6 Noroeste 0 952.9 -0.8 88
2019-12-10 18:00:00 8.3 4 Noroeste 9 Oeste 0 953.1 -1.1 82
2019-12-10 17:00:00 8.9 2 Norte 7 Noroeste 0 953.1 -1.9 79
2019-12-10 16:00:00 8.9 3 Noroeste 11 Este 0 953.7 -1.9 77
2019-12-10 15:00:00 8.9 6 Este 12 Este 0 954.2 -2 79
2019-12-10 14:00:00 7.7 4 Este 14 Este 0 955 -1.1 84
2019-12-10 13:00:00 6.7 6 Este 12 Este 0 955.6 -0.1 86
2019-12-10 12:00:00 6 3 Este 10 Sudeste 0 956.2 0.1 90
2019-12-10 11:00:00 5 5 Este 14 Sudeste 0 956.1 0.1 92
2019-12-10 10:00:00 4.8 8 Este 13 Este 0 955.7 -0.6 96
2019-12-10 09:00:00 4.5 4 Este 12 Nordeste 0 956.1 -0.1 97
2019-12-10 08:00:00 5 6 Este 15 Este 0 956 -0.4 95
2019-12-10 07:00:00 5.5 5 Este 13 Este 0 956.3 -0.2 95
2019-12-10 06:00:00 5.8 5 Este 19 Este 0 956.2 -0.3 96
2019-12-10 05:00:00 5.9 8 Este 14 Nordeste 0 956.4 -0.2 99
2019-12-10 04:00:00 6 7 Este 11 Este 0 956.5 -0.4 99
2019-12-10 03:00:00 6.3 4 Nordeste 10 Nordeste 0 956.5 -0.6 98
2019-12-10 02:00:00 6 5 Este 8 Este 0 956.6 -0.3 99
2019-12-10 01:00:00 5 3 Este 6 Este 0 956.9 0.1 97
2019-12-10 00:00:00 5.4 0 Calma 4 Nordeste 0 957.1 0.7 95
2019-12-09 23:00:00 6.6 0 Calma 10 Sudoeste 0 956.9 1 96
2019-12-09 22:00:00 7.2 3 Oeste 13 Noroeste 0 956.8 1.5 95
2019-12-09 21:00:00 7.7 6 Noroeste 12 Noroeste 0 956.4 1.1 94
2019-12-09 20:00:00 8.2 7 Noroeste 15 Oeste 0 955.9 0.6 94
2019-12-09 19:00:00 8.8 7 Noroeste 12 Oeste 0 955.3 0.1 93
2019-12-09 18:00:00 9.5 4 Noroeste 19 Oeste 0 955.3 0.1 89
2019-12-09 17:00:00 10.8 8 Noroeste 19 Noroeste 0 955.3 -0.4 85
2019-12-09 16:00:00 12.3 12 Noroeste 18 Noroeste 0 955.2 -1.4 80
2019-12-09 15:00:00 12.8 8 Noroeste 16 Noroeste 0 955.2 -1.9 78
2019-12-09 14:00:00 12.4 5 Oeste 14 Oeste 0 955.7 -1.3 74
2019-12-09 13:00:00 12.3 5 Oeste 11 Noroeste 0 956.6 0 74
2019-12-09 12:00:00 10.4 5 Noroeste 12 Noroeste 0 957.1 1.6 82
2019-12-09 11:00:00 9.6 6 Noroeste 11 Oeste 0 957 1.7 86
2019-12-09 10:00:00 9 3 Norte 10 Sur 0 956.6 1.7 93
2019-12-09 09:00:00 8.5 4 Sur 8 Sur 0 955.5 1.1 97
2019-12-09 08:00:00 8.6 2 Norte 5 Norte 0 955.3 0.8 97
2019-12-09 07:00:00 8.6 2 Norte 5 Oeste 0 954.9 0.6 99
2019-12-09 06:00:00 8.5 3 Sudoeste 8 Noroeste 0 954.4 0.6 99
2019-12-09 05:00:00 8.7 2 Nordeste 10 Norte 0 954.5 1.1 98
2019-12-09 04:00:00 8.9 6 Noroeste 14 Noroeste 0 954.3 0.2 97
2019-12-09 03:00:00 9 5 Oeste 17 Noroeste 0 953.8 0.2 96
2019-12-09 02:00:00 9 6 Oeste 13 Sudoeste 0 953.4 0.2 95
2019-12-09 01:00:00 8.9 5 Oeste 12 Noroeste 0 954.1 0.9 94
2019-12-09 00:00:00 8.8 5 Oeste 14 Oeste 0 953.6 0.8 92
2019-12-08 23:00:00 9 5 Oeste 12 Oeste 0 953.2 0.6 92
2019-12-08 22:00:00 9.1 5 Oeste 13 Sudoeste 0 953.2 1 93
2019-12-08 21:00:00 9.4 5 Oeste 14 Oeste 0 952.8 0.5 92
2019-12-08 20:00:00 9.8 8 Oeste 15 Noroeste 0.2 952.6 0.4 91
2019-12-08 19:00:00 10 6 Sudoeste 17 Noroeste 0 952.2 0.2 91
2019-12-08 18:00:00 10.3 6 Oeste 17 Oeste 0 952.3 0.4 89
2019-12-08 17:00:00 10.7 8 Noroeste 14 Noroeste 0 952.2 0 87
2019-12-08 16:00:00 10.7 6 Noroeste 12 Noroeste 0 952 -0.9 88
2019-12-08 15:00:00 10.2 5 Oeste 15 Noroeste 0 951.9 -1.8 89
2019-12-08 14:00:00 9.8 5 Noroeste 11 Noroeste 0 952.2 -1.7 87
2019-12-08 13:00:00 7.3 4 Oeste 8 Noroeste 0 952.9 -0.4 95
2019-12-08 12:00:00 5.8 4 Noroeste 9 Norte 0 953.7 0.8 97
2019-12-08 11:00:00 4.9 3 Oeste 9 Sudeste 0 953.9 1.4 99
2019-12-08 10:00:00 4.3 4 Sur 7 Sudeste 0 953.3 1.1 100
2019-12-08 09:00:00 4.4 0 Calma 5 Oeste 0 952.9 1 100
2019-12-08 08:00:00 4.5 2 Sudeste 9 Sur 0 952.5 0.5 100
2019-12-08 07:00:00 4.5 3 Oeste 11 Noroeste 0 952.2 0.1 100
2019-12-08 06:00:00 4.9 3 Noroeste 9 Oeste 0 951.9 -0.6 99
2019-12-08 05:00:00 5.1 4 Sudoeste 10 Sur 0 952 -0.5 99
2019-12-08 04:00:00 5.3 3 Sudeste 6 Sudoeste 0 952.1 -0.6 99
2019-12-08 03:00:00 5.6 4 Sudeste 8 Sudeste 0 952.5 -0.5 99
2019-12-08 02:00:00 5.9 4 Sudeste 8 Sudeste 0 952.5 -0.2 99
2019-12-08 01:00:00 6.2 3 Sudeste 5 Sur 0 952.7 0.5 99
2019-12-08 00:00:00 6.2 5 Noroeste 10 Noroeste 0 953 0.9 99
2019-12-07 23:00:00 6.4 3 Sur 7 Sur 0 952.7 0.8 98
2019-12-07 22:00:00 6.5 2 Sudeste 8 Sudoeste 0 952.2 0.8 98
2019-12-07 21:00:00 6.6 4 Sur 9 Sur 0 952.1 1 96
2019-12-07 20:00:00 6.8 5 Sur 9 Sur 0 951.9 1.1 96
2019-12-07 19:00:00 7 5 Sudeste 9 Sur 0 951.4 0.9 94
2019-12-07 18:00:00 7.4 6 Sur 9 Sudeste 0 951.1 0.9 92
2019-12-07 17:00:00 8.3 5 Sudeste 7 Sudeste 0 950.8 0.2 87
2019-12-07 16:00:00 8.7 2 Sur 9 Noroeste 0 950.5 -0.7 87
2019-12-07 15:00:00 8.6 3 Nordeste 12 Este 0 950.2 -1.6 87
2019-12-07 14:00:00 8.6 7 Sudeste 14 Este 0 950.6 -1.2 88
2019-12-07 13:00:00 8.2 7 Este 15 Este 0 951.2 0.1 92
2019-12-07 12:00:00 7.5 4 Este 8 Este 0 951.8 1 98
2019-12-07 11:00:00 6.8 3 Este 8 Sudeste 0 951.8 1.3 100
2019-12-07 10:00:00 6.3 2 Sudeste 9 Este 0 951.1 0.9 100
2019-12-07 09:00:00 6.1 5 Nordeste 9 Nordeste 0 950.8 0.8 100
2019-12-07 08:00:00 5.9 7 Nordeste 17 Norte 0 950.5 0.6 100
2019-12-07 07:00:00 5.4 9 Este 14 Este 0 950.2 0.4 100
2019-12-07 06:00:00 4.7 6 Este 13 Nordeste 0 950 0.2 100
2019-12-07 05:00:00 3.8 3 Este 9 Sudeste 0 949.9 0.4 99
2019-12-07 04:00:00 4.2 5 Este 9 Sudeste 0 949.8 0 98
2019-12-07 03:00:00 4.4 2 Norte 6 Este 0 949.8 0.2 98
2019-12-07 02:00:00 5.1 4 Nordeste 11 Norte 0 949.5 0.2 98
2019-12-07 01:00:00 5.3 5 Nordeste 8 Nordeste 0 949.8 0.7 98
2019-12-07 00:00:00 5.9 3 Nordeste 9 Nordeste 0 949.6 0.7 95
2019-12-06 23:00:00 6.7 6 Nordeste 12 Nordeste 0 949.3 0.7 95
2019-12-06 22:00:00 7.2 6 Nordeste 17 Nordeste 0 949.1 0.8 93
2019-12-06 21:00:00 7.8 8 Nordeste 16 Norte 0 948.9 0.9 91
2019-12-06 20:00:00 8.8 7 Norte 17 Norte 0 948.6 0.8 88
2019-12-06 19:00:00 9.1 6 Norte 15 Nordeste 0 948.3 0.7 87
2019-12-06 18:00:00 10.5 7 Nordeste 20 Este 0 948 0.4 83
2019-12-06 17:00:00 11.6 10 Nordeste 24 Nordeste 0 947.8 -0.4 78
2019-12-06 16:00:00 12.4 15 Nordeste 23 Nordeste 0 947.6 -1.2 75
2019-12-06 15:00:00 12.7 12 Este 21 Nordeste 0 947.6 -1.8 76
2019-12-06 14:00:00 11.5 8 Nordeste 18 Nordeste 0 948.2 -1.5 82
2019-12-06 13:00:00 9.9 9 Este 21 Nordeste 0 948.8 -0.6 88
2019-12-06 12:00:00 8.7 13 Este 24 Este 0 949.4 0.5 90
2019-12-06 11:00:00 7.5 12 Este 22 Este 0 949.7 1.3 97
2019-12-06 10:00:00 6.3 9 Este 20 Nordeste 0 949.4 1.6 100
2019-12-06 09:00:00 5.7 10 Este 21 Este 0 948.9 1.6 99
2019-12-06 08:00:00 5.8 10 Este 18 Este 0 948.4 1.2 98
2019-12-06 07:00:00 5.9 8 Nordeste 17 Nordeste 0 947.8 0.7 98
2019-12-06 06:00:00 6.2 6 Nordeste 17 Nordeste 0 947.3 0.4 98
2019-12-06 05:00:00 6.7 9 Este 28 Nordeste 0 947.2 0.4 98
2019-12-06 04:00:00 6.8 12 Este 24 Nordeste 0 947.1 -0.1 98
2019-12-06 03:00:00 6.7 11 Nordeste 19 Nordeste 0 946.9 -0.1 98
2019-12-06 02:00:00 6.6 11 Este 20 Nordeste 0 946.8 0.3 98
2019-12-06 01:00:00 6.6 8 Nordeste 18 Nordeste 0 947.2 0.9 98
2019-12-06 00:00:00 6.8 9 Nordeste 18 Nordeste 0 947 1 97
2019-12-05 23:00:00 7.5 10 Nordeste 19 Este 0 946.5 1 95
2019-12-05 22:00:00 8.1 11 Este 29 Nordeste 0 946.3 1.6 94
2019-12-05 21:00:00 8.4 10 Nordeste 28 Nordeste 0 946 1.9 92
2019-12-05 20:00:00 8.5 13 Nordeste 22 Nordeste 0 945.5 1.8 92
2019-12-05 19:00:00 8.8 8 Nordeste 21 Nordeste 0 944.7 1.5 89
2019-12-05 18:00:00 10 11 Nordeste 25 Nordeste 0 944.1 1.2 85
2019-12-05 17:00:00 11.2 13 Nordeste 31 Este 0 943.7 0.6 80
2019-12-05 16:00:00 11.4 17 Nordeste 36 Nordeste 0 943.2 -0.6 76
2019-12-05 15:00:00 11.8 18 Nordeste 36 Este 0 942.9 -0.7 75
2019-12-05 14:00:00 11.5 18 Nordeste 41 Nordeste 0 943.1 -0.2 76
2019-12-05 13:00:00 10.5 16 Nordeste 40 Nordeste 0 943.8 1.3 75
2019-12-05 12:00:00 11.3 20 Nordeste 36 Nordeste 0 943.6 1.7 71
2019-12-05 11:00:00 9.7 10 Nordeste 23 Nordeste 0 943.3 1.8 81
2019-12-05 10:00:00 7.8 7 Nordeste 16 Nordeste 0 942.5 1.8 91
2019-12-05 09:00:00 6.2 3 Nordeste 9 Nordeste 0 941.9 1.9 94
2019-12-05 08:00:00 6.7 4 Nordeste 10 Nordeste 0 941.5 1.7 90
2019-12-05 07:00:00 7.2 5 Nordeste 13 Nordeste 0 940.7 1.1 90
2019-12-05 06:00:00 7.6 4 Nordeste 11 Nordeste 0 940 0.6 92
2019-12-05 05:00:00 7.6 6 Nordeste 13 Nordeste 0 939.8 1 93
2019-12-05 04:00:00 7.6 0 Calma 5 Noroeste 0 939.6 1 94
2019-12-05 03:00:00 7.7 3 Noroeste 5 Noroeste 0 939.4 1 94
2019-12-05 02:00:00 7.6 3 Noroeste 4 Norte 0 938.8 0.9 95
2019-12-05 01:00:00 7.9 2 Norte 4 Noroeste 0 938.6 1.1 93
2019-12-05 00:00:00 8.3 2 Norte 6 Nordeste 0 938.4 1.1 92
2019-12-04 23:00:00 8.5 3 Norte 9 Norte 0 937.9 1 92
2019-12-04 22:00:00 8.6 3 Norte 12 Noroeste 0 937.5 1 91
2019-12-04 21:00:00 8.5 7 Noroeste 12 Noroeste 0.2 937.3 1.2 93
2019-12-04 20:00:00 8.5 4 Noroeste 11 Oeste 0 936.9 1.1 94
2019-12-04 19:00:00 8.7 5 Noroeste 9 Oeste 0 936.5 1.1 92
2019-12-04 18:00:00 8.6 3 Noroeste 17 Noroeste 0.4 936.1 1 94
2019-12-04 17:00:00 8.9 7 Noroeste 14 Norte 0.6 935.8 0.4 93
2019-12-04 16:00:00 9.2 4 Noroeste 11 Oeste 0.4 935.4 -0.4 93
2019-12-04 15:00:00 9.5 5 Noroeste 12 Noroeste 0.8 935.1 -1.4 88
2019-12-04 14:00:00 9.8 9 Noroeste 14 Noroeste 0 935.4 -1.9 82
2019-12-04 13:00:00 9.8 5 Noroeste 14 Oeste 0 935.8 -1.5 81
2019-12-04 12:00:00 8.7 8 Oeste 17 Oeste 0 936.5 -0.5 83
2019-12-04 11:00:00 7.3 5 Oeste 13 Oeste 0 937.3 0.3 86
2019-12-04 10:00:00 6.3 5 Oeste 12 Oeste 0 937.3 0.5 90
2019-12-04 09:00:00 5.2 3 Oeste 9 Sudoeste 0 937 -0.1 94
2019-12-04 08:00:00 4.8 2 Oeste 6 Oeste 0.2 937 -0.5 96
2019-12-04 07:00:00 5.4 2 Sur 5 Sur 0 936.8 -1.3 94
2019-12-04 06:00:00 5.2 4 Este 5 Este 0 937.1 -1.6 95
2019-12-04 05:00:00 5 2 Sudeste 4 Sur 0 937.5 -1.8 97
2019-12-04 04:00:00 4.4 0 Calma 5 Este 0 938.1 -2 95
2019-12-04 03:00:00 5 4 Este 8 Norte 0 938.7 -1.8 93
2019-12-04 02:00:00 5 4 Nordeste 10 Nordeste 0 939.3 -1.3 94
2019-12-04 01:00:00 4.9 7 Este 12 Nordeste 0 940.1 -0.5 91
2019-12-04 00:00:00 5.8 7 Nordeste 20 Este 0 940.5 0.1 86
2019-12-03 23:00:00 7.1 11 Este 21 Este 0 940.6 0.4 80
2019-12-03 22:00:00 7.2 10 Este 27 Este 0 940.6 0.7 85
2019-12-03 21:00:00 7.6 17 Este 35 Este 0 940.4 0.8 86
2019-12-03 20:00:00 7.8 17 Este 34 Este 0 940.2 0.5 86
2019-12-03 19:00:00 8.4 18 Este 32 Nordeste 0 939.9 0.4 84
2019-12-03 18:00:00 8.7 15 Este 31 Nordeste 0 939.6 0.1 86
2019-12-03 17:00:00 8.9 15 Nordeste 28 Nordeste 0 939.7 -0.2 87
2019-12-03 16:00:00 9.1 17 Nordeste 33 Nordeste 0 939.5 -0.8 85
2019-12-03 15:00:00 9.2 16 Nordeste 33 Este 0 939.5 -1.7 84
2019-12-03 14:00:00 9 17 Nordeste 42 Nordeste 0 939.9 -1.7 84
2019-12-03 13:00:00 9.2 19 Nordeste 36 Nordeste 0 940.3 -1.1 84
2019-12-03 12:00:00 8.6 14 Nordeste 35 Nordeste 0 941.2 -0.1 83
2019-12-03 11:00:00 8.3 18 Nordeste 34 Nordeste 0 941.6 0.5 83
2019-12-03 10:00:00 7.9 17 Nordeste 36 Este 0 941.4 0.4 85
2019-12-03 09:00:00 7.7 19 Nordeste 40 Nordeste 0 941.3 0.6 85
2019-12-03 08:00:00 7.4 17 Nordeste 37 Nordeste 0 941.1 0 86
2019-12-03 07:00:00 7 15 Nordeste 31 Nordeste 0 941 -0.5 87
2019-12-03 06:00:00 6.9 12 Nordeste 26 Nordeste 0 940.7 -1.2 87
2019-12-03 05:00:00 7.3 11 Nordeste 26 Nordeste 0 941.1 -1.2 85
2019-12-03 04:00:00 7.5 13 Este 31 Nordeste 0 941.5 -1.4 84
2019-12-03 03:00:00 7.7 14 Nordeste 28 Nordeste 0 941.9 -1 83
2019-12-03 02:00:00 7.8 15 Nordeste 27 Este 0 942.3 -0.8 84
2019-12-03 01:00:00 7.6 13 Nordeste 29 Nordeste 0 942.9 0 86
2019-12-03 00:00:00 7.8 13 Nordeste 28 Este 0 942.9 0.1 89
2019-12-02 23:00:00 8.3 12 Nordeste 31 Nordeste 0 943.1 1 90
2019-12-02 22:00:00 8.8 17 Nordeste 33 Nordeste 0 942.9 1.8 88
2019-12-02 21:00:00 9.2 14 Nordeste 32 Nordeste 0 942.8 1.9 87
2019-12-02 20:00:00 9.3 17 Nordeste 38 Este 0 942.1 1.7 85
2019-12-02 19:00:00 9.4 20 Nordeste 42 Nordeste 0 941.1 1 83
2019-12-02 18:00:00 9.8 17 Este 43 Este 0 940.9 1.1 84
2019-12-02 17:00:00 9.9 19 Nordeste 41 Nordeste 0 940.4 0.2 86
2019-12-02 16:00:00 9.8 14 Nordeste 39 Nordeste 0 940.1 -0.4 86
2019-12-02 15:00:00 9.8 20 Nordeste 43 Nordeste 0 939.8 -1.2 84
2019-12-02 14:00:00 8.6 19 Nordeste 40 Nordeste 0.2 940.2 -0.6 90
2019-12-02 13:00:00 8.4 18 Nordeste 39 Nordeste 0.2 940.5 0 90
2019-12-02 12:00:00 8.3 15 Nordeste 36 Nordeste 0 941 1.4 90
2019-12-02 11:00:00 7.7 16 Nordeste 31 Nordeste 0 940.8 2.1 90
2019-12-02 10:00:00 7 14 Nordeste 37 Este 0.4 940.5 2.3 94
2019-12-02 09:00:00 7.6 15 Nordeste 39 Este 0.4 939.6 1.8 94
2019-12-02 08:00:00 7.7 16 Nordeste 31 Nordeste 0 938.7 1 95
2019-12-02 07:00:00 7.3 13 Nordeste 28 Nordeste 0 938.2 0.4 97
2019-12-02 06:00:00 7.1 14 Nordeste 28 Este 0 937.8 0.2 96
2019-12-02 05:00:00 7 9 Nordeste 22 Nordeste 0 937.7 -0.1 97
2019-12-02 04:00:00 7 10 Nordeste 23 Nordeste 0 937.8 0 99
2019-12-02 03:00:00 6.6 10 Nordeste 21 Nordeste 0.2 937.6 -0.2 98
2019-12-02 02:00:00 6.5 8 Nordeste 18 Nordeste 0 937.8 0.1 98
2019-12-02 01:00:00 6.2 6 Nordeste 13 Nordeste 0 937.8 0 98
2019-12-02 00:00:00 6 5 Nordeste 11 Nordeste 0 937.8 0.1 98
2019-12-01 23:00:00 6.1 6 Este 12 Este 0 937.7 -0.3 97
2019-12-01 22:00:00 6.3 3 Norte 6 Nordeste 0 937.8 0.3 96
2019-12-01 21:00:00 7 4 Este 8 Sudeste 0 937.7 0 95
2019-12-01 20:00:00 7.2 6 Sudeste 15 Sur 0 938 1 95
2019-12-01 19:00:00 7.8 8 Sudeste 14 Sur 1.8 937.5 0.1 94
2019-12-01 18:00:00 8.1 6 Sudoeste 30 Oeste 4.6 937.7 -0.3 91
2019-12-01 17:00:00 11 9 Sudeste 21 Sur 0 937 -1.7 79
2019-12-01 16:00:00 11.4 12 Sur 23 Sur 0 937.4 -1.9 79
2019-12-01 15:00:00 12.2 12 Sur 24 Sur 0 938 -2.4 73
2019-12-01 14:00:00 11.2 11 Sur 25 Sudoeste 0 938.7 -2.2 80
2019-12-01 13:00:00 11.2 12 Sudoeste 29 Sudoeste 0 939.3 -1.6 76
2019-12-01 12:00:00 10.5 9 Sur 19 Sur 0 940.4 -0.5 76
2019-12-01 11:00:00 9.8 8 Sur 15 Sur 0 940.9 -0.5 80
2019-12-01 10:00:00 8.3 7 Sudeste 16 Sudeste 0 940.9 -0.2 91
2019-12-01 09:00:00 7.8 7 Sudeste 14 Sudeste 0 940.9 0 91
2019-12-01 08:00:00 7.6 3 Sudoeste 18 Sudoeste 0 941.4 0.1 91
2019-12-01 07:00:00 6.9 7 Oeste 13 Sudoeste 0 941.1 -0.7 95
2019-12-01 06:00:00 7.3 2 Oeste 17 Oeste 0 940.9 -1.3 91
2019-12-01 05:00:00 7.9 8 Sudoeste 21 Sudoeste 0 941.3 -1.4 89
2019-12-01 04:00:00 8.7 11 Oeste 24 Sudoeste 0 941.8 -1.2 90
2019-12-01 03:00:00 9.2 10 Sudoeste 24 Sudoeste 0 942.2 -1.2 91
2019-12-01 02:00:00 9.8 11 Oeste 21 Sudoeste 0.2 942.7 -0.9 88
2019-12-01 01:00:00 10.5 11 Sudoeste 31 Sudoeste 0.2 943 -0.7 93
2019-12-01 00:00:00 11.9 9 Sudoeste 25 Sudoeste 0 943.4 -1 92
2019-11-30 23:00:00 12.5 10 Sudoeste 24 Sudoeste 0 943.6 -0.9 86
2019-11-30 22:00:00 12.5 11 Sudoeste 23 Sur 0 943.7 -1.3 81
2019-11-30 21:00:00 12.9 6 Sudoeste 21 Sudoeste 0 944.4 -0.8 79
2019-11-30 20:00:00 13.2 9 Sudoeste 24 Sudoeste 0 944.5 -0.8 81
2019-11-30 19:00:00 13.7 5 Oeste 17 Oeste 0 945 -0.6 78
2019-11-30 18:00:00 14 11 Oeste 29 Sudoeste 0 945.2 -1 72
2019-11-30 17:00:00 14.4 10 Oeste 28 Oeste 0 945.3 -1.7 68
2019-11-30 16:00:00 15.1 8 Oeste 27 Noroeste 0 945.6 -2.2 68
2019-11-30 15:00:00 15.9 15 Oeste 30 Oeste 0 946.2 -2.5 66
2019-11-30 14:00:00 15.5 14 Oeste 29 Noroeste 0 947 -2.1 73
2019-11-30 13:00:00 13.8 7 Oeste 17 Oeste 0 947.8 -1.1 80
2019-11-30 12:00:00 13.3 9 Sudoeste 15 Sudoeste 0 948.7 0 84
2019-11-30 11:00:00 12.4 6 Oeste 12 Noroeste 0 949.1 0.4 87
2019-11-30 10:00:00 11.3 3 Oeste 8 Oeste 0 948.9 0.2 91
2019-11-30 09:00:00 10.2 4 Oeste 10 Oeste 0 948.7 -0.3 96
2019-11-30 08:00:00 9.2 4 Sur 9 Sur 0 948.7 -0.1 95
2019-11-30 07:00:00 10.1 0 Calma 13 Sudoeste 0 948.7 -0.1 93
2019-11-30 06:00:00 10.2 4 Noroeste 10 Oeste 0 949 -0.1 94
2019-11-30 05:00:00 10.2 5 Sudoeste 9 Sudoeste 0 948.8 -0.7 92
2019-11-30 04:00:00 11.3 4 Sur 7 Sudeste 0 948.8 -0.8 88
2019-11-30 03:00:00 12.5 0 Calma 9 Sudoeste 0 949.1 -0.3 85
2019-11-30 02:00:00 12.7 3 Sudoeste 8 Sur 0 949.5 0 83
2019-11-30 01:00:00 12.8 0 Calma 8 Oeste 0 949.6 0.1 83
2019-11-30 00:00:00 13 4 Sudoeste 10 Oeste 0 949.4 -0.1 81
2019-11-29 23:00:00 13.1 4 Oeste 9 Sudoeste 0 949.5 -0.2 80
2019-11-29 22:00:00 13.2 4 Sudoeste 10 Sudoeste 0 949.5 0.1 80
2019-11-29 21:00:00 13.1 4 Oeste 10 Sudoeste 0 949.5 0.3 81
2019-11-29 20:00:00 13.2 5 Sur 9 Sur 0 949.7 0.5 81
2019-11-29 19:00:00 13.3 5 Sur 12 Sur 0 949.4 0.3 82
2019-11-29 18:00:00 13.6 5 Sudoeste 13 Oeste 0 949.2 0.3 80
2019-11-29 17:00:00 13.7 6 Sudoeste 14 Sudoeste 0 949.2 0 79
2019-11-29 16:00:00 13.8 6 Oeste 16 Oeste 0 949.1 -0.4 81
2019-11-29 15:00:00 14 7 Oeste 22 Noroeste 0 948.9 -1.1 81
2019-11-29 14:00:00 14 8 Oeste 19 Oeste 0 949.2 -0.5 80
2019-11-29 13:00:00 13.7 6 Oeste 19 Oeste 0 949.5 0.5 83
2019-11-29 12:00:00 13.2 7 Sudoeste 15 Oeste 0 950 1.4 84
2019-11-29 11:00:00 12.4 8 Sudoeste 18 Oeste 0 949.7 1.5 86
2019-11-29 10:00:00 11.9 8 Sudoeste 17 Sudoeste 0 949 1.3 88
2019-11-29 09:00:00 11.5 7 Sudoeste 17 Sudoeste 0 948.6 1.2 89
2019-11-29 08:00:00 11.5 9 Sudoeste 19 Sudoeste 0 948.2 1.2 88
2019-11-29 07:00:00 11.5 10 Sudoeste 21 Sudoeste 0 947.7 0.5 87
2019-11-29 06:00:00 11.4 11 Sudoeste 23 Sudoeste 0 947.4 0.3 87
2019-11-29 05:00:00 11.2 10 Sudoeste 20 Sudoeste 0 947 0.2 87
2019-11-29 04:00:00 11.1 7 Sudoeste 14 Sur 0 947.2 0.4 87
2019-11-29 03:00:00 10.9 5 Sudoeste 18 Sudoeste 0 947.1 0.4 87
2019-11-29 02:00:00 10.8 8 Sudoeste 21 Sudoeste 0 946.8 0.1 87
2019-11-29 01:00:00 10.5 5 Sur 17 Sudoeste 0 946.8 0 87
2019-11-29 00:00:00 10.9 8 Sudoeste 23 Sudoeste 0 946.7 0.2 85
2019-11-28 23:00:00 11 7 Sudoeste 14 Sudoeste 0 946.7 0.7 84
2019-11-28 22:00:00 11.4 5 Sudoeste 14 Sur 0 946.8 1.1 83
2019-11-28 21:00:00 11.8 6 Sudoeste 13 Sur 0 946.5 1.1 82
2019-11-28 20:00:00 12 6 Sudoeste 19 Sudoeste 0 946 0.4 81
2019-11-28 19:00:00 12.1 7 Sudoeste 15 Sudoeste 0 945.7 0.1 82
2019-11-28 18:00:00 12.3 7 Sudoeste 18 Sudoeste 0 945.4 -0.2 81
2019-11-28 17:00:00 12.5 8 Sudoeste 22 Oeste 0 945.6 -0.7 82
2019-11-28 16:00:00 12.8 9 Sudoeste 22 Oeste 0 945.6 -1.1 78
2019-11-28 15:00:00 12.1 6 Sudoeste 22 Sudoeste 0 945.6 -1.5 82
2019-11-28 14:00:00 11.5 8 Oeste 19 Oeste 0 946.3 -0.9 85
2019-11-28 13:00:00 11.6 11 Sudoeste 29 Sudoeste 0 946.7 0.1 84
2019-11-28 12:00:00 11.4 8 Sudoeste 17 Oeste 0 947.1 1 81
2019-11-28 11:00:00 10.6 6 Sudoeste 14 Oeste 0 947.2 1.6 88
2019-11-28 10:00:00 10 5 Sudoeste 16 Sudoeste 0 946.6 1.7 89
2019-11-28 09:00:00 9.4 7 Sudoeste 15 Oeste 0 946.1 1.6 92
2019-11-28 08:00:00 9 7 Oeste 16 Sudoeste 0 945.6 1.3 93
2019-11-28 07:00:00 8.5 9 Sudoeste 13 Oeste 0 944.9 0.6 94
2019-11-28 06:00:00 8.4 4 Sudoeste 23 Sudoeste 0 944.5 0.3 93
2019-11-28 05:00:00 8.5 12 Oeste 21 Oeste 0 944.3 0 93
2019-11-28 04:00:00 8.7 8 Oeste 22 Oeste 0 944.3 -0.1 91
2019-11-28 03:00:00 8.6 10 Sudoeste 17 Oeste 0 944.2 0.2 90
2019-11-28 02:00:00 8.8 5 Sudoeste 15 Oeste 0 944.3 0.3 88
2019-11-28 01:00:00 9.1 5 Oeste 19 Oeste 0 944.4 0.9 86
2019-11-28 00:00:00 9.2 6 Sudoeste 19 Sudoeste 0 944 0.6 86
2019-11-27 23:00:00 9.5 6 Oeste 19 Oeste 0 944 1.1 84
2019-11-27 22:00:00 10 11 Sudoeste 19 Oeste 0 943.5 0.9 81
2019-11-27 21:00:00 10.2 9 Oeste 18 Oeste 0 943.4 1.1 79
2019-11-27 20:00:00 10.8 8 Oeste 21 Sudoeste 0 942.9 1.3 77
2019-11-27 19:00:00 11.4 11 Sudoeste 24 Oeste 0 942.6 0.8 76
2019-11-27 18:00:00 12.4 8 Oeste 23 Oeste 0 942.3 0.5 76
2019-11-27 17:00:00 13.3 10 Sudoeste 28 Sudoeste 0 941.6 -0.9 71
2019-11-27 16:00:00 13.7 13 Oeste 32 Oeste 0 941.8 -0.8 71
2019-11-27 15:00:00 14.1 12 Oeste 26 Sudoeste 0 941.8 -1.2 68
2019-11-27 14:00:00 13.8 12 Oeste 34 Noroeste 0 942.5 -0.3 71
2019-11-27 06:00:00 11.3 12 Sudoeste 25 Sudoeste 0 940 0 95
2019-11-27 05:00:00 11.5 12 Sudoeste 30 Sudoeste 0 939.7 -0.2 94
2019-11-27 04:00:00 11.9 12 Sudoeste 24 Sudoeste 0 939.8 -0.5 90
2019-11-27 03:00:00 12.4 14 Sudoeste 27 Oeste 0 940 -0.1 88
2019-11-27 02:00:00 12.8 12 Oeste 30 Oeste 0 939.9 -0.1 90
2019-11-27 01:00:00 13.1 8 Oeste 33 Sudoeste 0 940.3 0.2 89
2019-11-27 00:00:00 13.2 14 Sudoeste 30 Oeste 0 940.1 0 93
2019-11-26 23:00:00 12.9 9 Sudoeste 26 Sudoeste 0.2 940 -0.3 94
2019-11-26 22:00:00 13.1 11 Sudoeste 27 Sudoeste 0 940.1 -0.3 91
2019-11-26 21:00:00 13.9 15 Sudoeste 31 Sudoeste 0 940.1 -0.2 83
2019-11-26 20:00:00 14 10 Sudoeste 26 Sudoeste 0 940.3 -0.3 84
2019-11-26 19:00:00 14.1 8 Sudoeste 28 Sudoeste 0 940.4 -0.5 85
2019-11-26 18:00:00 14.7 10 Sudoeste 23 Sudoeste 0 940.3 -1.1 82
2019-11-26 17:00:00 15 10 Sudoeste 24 Sur 0 940.6 -1.4 85
2019-11-26 16:00:00 14.7 10 Sudoeste 25 Sur 0 940.9 -2.1 90
2019-11-26 15:00:00 14.9 10 Sudoeste 27 Oeste 0 941.4 -2.2 90
2019-11-26 14:00:00 14.5 8 Sudoeste 24 Oeste 0.2 942 -1.9 90
2019-11-26 13:00:00 14.5 11 Sudoeste 21 Sudoeste 0 943 -0.9 87
2019-11-26 12:00:00 14.2 6 Sudoeste 15 Sudoeste 0 943.6 -0.1 85
2019-11-26 11:00:00 12.9 6 Sudoeste 13 Sur 0 943.9 0.2 89
2019-11-26 10:00:00 12.1 3 Sur 10 Oeste 0 943.9 0.5 92
2019-11-26 09:00:00 11.4 4 Sudoeste 11 Sudoeste 0 943.7 0 94
2019-11-26 08:00:00 11.2 5 Sudoeste 14 Sudoeste 0 943.7 -0.2 94
2019-11-26 07:00:00 10.9 7 Sudoeste 15 Sudoeste 0 943.4 -1 96
2019-11-26 06:00:00 11.3 3 Sudoeste 12 Sudoeste 0 943.7 -0.5 94
2019-11-26 05:00:00 11.3 5 Sudoeste 11 Sudoeste 0 943.9 -0.7 92
2019-11-26 04:00:00 11.3 4 Oeste 11 Sudoeste 0 944.4 -0.5 90
2019-11-26 03:00:00 11.5 6 Sudoeste 14 Sudoeste 0 944.2 -0.8 90
2019-11-26 02:00:00 11.5 9 Oeste 14 Sudoeste 0 944.6 -0.6 91
2019-11-26 01:00:00 11.5 8 Sudoeste 15 Sudoeste 0 944.9 -0.1 92
2019-11-26 00:00:00 11.8 5 Sudoeste 13 Sudoeste 0 945 0.2 92
2019-11-25 23:00:00 11.8 6 Sur 16 Oeste 0 945.2 0.8 91
2019-11-25 22:00:00 11.8 9 Sudoeste 17 Sudoeste 0 945 0.8 90
2019-11-25 21:00:00 12 4 Sudoeste 11 Sudoeste 0 944.8 1.1 90
2019-11-25 20:00:00 13.1 8 Sudoeste 17 Sudoeste 0 944.4 0.8 86
2019-11-25 19:00:00 13.7 7 Oeste 18 Oeste 0 944.2 1.2 85
2019-11-25 18:00:00 14.1 8 Oeste 16 Oeste 0 943.7 0.7 83
2019-11-25 17:00:00 14.7 9 Oeste 26 Noroeste 0 943.6 0.6 80
2019-11-25 16:00:00 15.2 15 Oeste 30 Sudoeste 0 943 -0.4 83
2019-11-25 15:00:00 14.5 11 Oeste 25 Sudoeste 0.2 943 -1 93
2019-11-25 14:00:00 14.1 10 Oeste 26 Oeste 0 943 -1.1 93
2019-11-25 13:00:00 13.4 13 Oeste 27 Oeste 0 943.4 -0.6 95
2019-11-25 12:00:00 12.8 13 Sudoeste 28 Oeste 0 944 0.3 95
2019-11-25 11:00:00 12.2 9 Sudoeste 21 Oeste 0 944.1 0.4 97
2019-11-25 10:00:00 11.1 4 Sudoeste 13 Sur 0.2 944 0.6 98
2019-11-25 09:00:00 10.5 5 Sur 12 Sur 0 943.7 0.8 98
2019-11-25 08:00:00 10.3 4 Sudoeste 9 Sudoeste 0.6 943.7 0.5 97
2019-11-25 07:00:00 10 3 Oeste 16 Sudoeste 0.4 943.4 0 97
2019-11-25 06:00:00 9.7 6 Sudoeste 15 Oeste 0 942.9 -0.7 94
2019-11-25 05:00:00 9.5 8 Sudoeste 22 Sur 0 943.2 -0.6 94
2019-11-25 04:00:00 9.8 12 Sudoeste 24 Sudoeste 0 943.4 -1 89
2019-11-25 03:00:00 9.9 8 Oeste 19 Sudoeste 0 943.6 -0.8 85
2019-11-25 02:00:00 9.5 6 Sudoeste 19 Sur 0 943.8 -0.7 85
2019-11-25 01:00:00 9.6 9 Sudoeste 23 Sudoeste 0 944.4 -0.2 84
2019-11-25 00:00:00 9.3 9 Sudoeste 17 Sudoeste 0 944.4 -0.3 85
2019-11-24 23:00:00 9.3 7 Sudoeste 20 Oeste 0 944.5 0.2 84
2019-11-24 22:00:00 9.2 8 Oeste 17 Oeste 0 944.6 0.7 82
2019-11-24 21:00:00 9.3 8 Sudoeste 21 Oeste 0 944.7 1.1 82
2019-11-24 20:00:00 9.3 8 Sudoeste 17 Sudoeste 0 944.3 1.1 80
2019-11-24 19:00:00 9.2 10 Sudoeste 21 Sudoeste 0 943.9 1.1 78
2019-11-24 18:00:00 9.8 10 Oeste 24 Sudoeste 0 943.6 0.5 72
2019-11-24 17:00:00 10.8 9 Oeste 28 Oeste 0 943.2 -0.3 66
2019-11-24 16:00:00 11.3 9 Oeste 26 Noroeste 0 942.8 -1.2 64
2019-11-24 15:00:00 11.5 12 Oeste 23 Oeste 0 943.1 -1.6 62
2019-11-24 14:00:00 11 11 Oeste 24 Oeste 0 943.5 -1 64
2019-11-24 13:00:00 9.8 11 Noroeste 19 Oeste 0 944 0 73
2019-11-24 12:00:00 8.8 10 Oeste 21 Noroeste 0 944.7 0.9 78
2019-11-24 11:00:00 7.3 8 Oeste 18 Oeste 0 944.5 1.3 85
2019-11-24 10:00:00 5.9 8 Sudoeste 15 Sudoeste 0 944 2 93
2019-11-24 09:00:00 3.9 5 Sudoeste 13 Sudoeste 0 943.8 2.6 97
2019-11-24 08:00:00 3.9 4 Sur 14 Sudoeste 0 943.2 2.4 94
2019-11-24 07:00:00 4.2 6 Sudoeste 13 Sudoeste 0 942 1.2 94
2019-11-24 06:00:00 4.4 4 Oeste 15 Oeste 0 941.2 0.3 92
2019-11-24 05:00:00 4.9 5 Oeste 15 Oeste 0 940.8 0.1 91
2019-11-24 04:00:00 5.3 6 Oeste 18 Oeste 0 940.8 0.2 89
2019-11-24 03:00:00 5.8 5 Oeste 15 Oeste 0 940.9 0.6 87
2019-11-24 02:00:00 6.1 5 Oeste 17 Sudoeste 0 940.7 0.5 86
2019-11-24 01:00:00 6.2 8 Oeste 17 Sudoeste 0 940.6 0.8 86
2019-11-24 00:00:00 6.7 6 Sudoeste 23 Oeste 0 940.3 1 83
2019-11-23 23:00:00 6.9 7 Sudoeste 19 Oeste 0 940.2 1.8 80
2019-11-23 22:00:00 7.2 12 Sudoeste 19 Sudoeste 0 939.8 2 78
2019-11-23 21:00:00 7.8 9 Oeste 23 Oeste 0 939.3 2.6 74
2019-11-23 20:00:00 8.5 8 Oeste 19 Oeste 0 938.4 2.8 69
2019-11-23 19:00:00 9.1 7 Oeste 18 Sudoeste 0 937.8 3 67
2019-11-23 18:00:00 10.4 7 Oeste 30 Noroeste 0 936.7 2.7 63
2019-11-23 17:00:00 11.3 15 Noroeste 34 Oeste 0 935.6 1.4 56
2019-11-23 16:00:00 11.7 12 Oeste 36 Oeste 0 934.8 0.9 57
2019-11-23 15:00:00 11.8 15 Oeste 34 Oeste 0 934 0.4 55
2019-11-23 14:00:00 11.8 15 Noroeste 34 Oeste 0 934.2 1.6 59
2019-11-23 13:00:00 11.1 16 Oeste 40 Oeste 0 933.9 2.5 64
2019-11-23 12:00:00 10.2 12 Oeste 38 Noroeste 0 933.6 3.5 69
2019-11-23 11:00:00 8.9 18 Oeste 40 Oeste 0 932.6 4.2 74
2019-11-23 10:00:00 8.2 11 Oeste 37 Noroeste 0 931.4 3.9 80
2019-11-23 09:00:00 7.2 15 Oeste 37 Oeste 0 930.1 3.2 83
2019-11-23 08:00:00 7.2 13 Oeste 44 Oeste 0 928.4 2 84
2019-11-23 07:00:00 7.2 13 Oeste 39 Sudoeste 0 927.5 1.6 87
2019-11-23 06:00:00 7.7 18 Oeste 37 Oeste 0 926.9 1.4 86
2019-11-23 05:00:00 8 16 Oeste 36 Oeste 0 926.4 1.6 88
2019-11-23 04:00:00 8.7 10 Oeste 34 Sudoeste 0 925.9 0.8 90
2019-11-23 03:00:00 8.6 15 Oeste 55 Oeste 3 925.5 0 92
2019-11-23 02:00:00 9 16 Sudoeste 45 Sudoeste 2.6 924.8 -0.6 96
2019-11-23 01:00:00 9.6 18 Sudoeste 48 Oeste 0.2 925.1 -0.2 88
2019-11-23 00:00:00 9.5 20 Oeste 43 Oeste 0 925.5 0.4 90
2019-11-22 23:00:00 10.2 15 Oeste 41 Oeste 0.6 925.4 0.7 93
2019-11-22 22:00:00 11.2 18 Oeste 35 Oeste 0 925.3 1.5 88
2019-11-22 21:00:00 11.4 11 Sudoeste 30 Sudoeste 0 925.1 2 87
2019-11-22 20:00:00 11.3 15 Sudoeste 36 Oeste 0 924.7 1.5 89
2019-11-22 19:00:00 11.9 15 Sudoeste 36 Oeste 0 923.8 0.5 89
2019-11-22 18:00:00 12.9 14 Sudoeste 35 Sudoeste 0.6 923.1 -1.2 95
2019-11-22 17:00:00 13.1 17 Sudoeste 33 Sudoeste 4.6 923.2 -1.9 96
2019-11-22 16:00:00 12.7 9 Sudoeste 27 Sudoeste 3.2 923.3 -3.2 97
2019-11-22 15:00:00 12.8 17 Sur 43 Sudoeste 2 924.3 -4.5 95
2019-11-22 14:00:00 12.3 9 Sudoeste 27 Sur 1.6 925.1 -4.6 96
2019-11-22 13:00:00 11.9 13 Sur 26 Sur 4.2 926.5 -4 96
2019-11-22 12:00:00 12.3 12 Sur 23 Sur 0 928.8 -2.5 90
2019-11-22 11:00:00 11.5 11 Sur 24 Sur 0 929.7 -1.9 89
2019-11-22 10:00:00 9.9 5 Sudeste 12 Sur 0 930.5 -1.5 95
2019-11-22 09:00:00 9.2 4 Sur 9 Sudoeste 0 931.3 -1.8 96
2019-11-22 08:00:00 9.1 5 Sur 16 Sur 0 931.6 -1.8 96
2019-11-22 07:00:00 9.1 4 Sur 14 Sudoeste 0.2 932 -1.7 97
2019-11-22 06:00:00 9.1 5 Sudoeste 14 Sur 0 933.1 -1.1 98
2019-11-22 05:00:00 9.1 7 Sudoeste 13 Sur 0 933.4 -1.1 98
2019-11-22 04:00:00 8.9 4 Sur 12 Sudoeste 0.4 933.7 -1.6 98
2019-11-22 03:00:00 8.8 3 Sudeste 9 Sur 0 934.2 -1.5 98
2019-11-22 02:00:00 8.8 3 Sudeste 7 Sudeste 0 934.5 -1.6 98
2019-11-22 01:00:00 8.8 3 Sudeste 6 Este 0.2 935.3 -0.7 98
2019-11-22 00:00:00 9 2 Sudeste 8 Sudoeste 1 935.7 -0.2 99
2019-11-21 23:00:00 8.9 4 Sudoeste 8 Sudoeste 0.2 936.1 0 99
2019-11-21 22:00:00 8.5 3 Sudeste 5 Sudoeste 0 936 0.3 98
2019-11-21 21:00:00 8.3 2 Sur 6 Sur 0 935.9 0.4 97
2019-11-21 20:00:00 8.8 4 Sudeste 9 Sudoeste 0 936.1 0.7 94
2019-11-21 19:00:00 9.7 4 Sudoeste 10 Oeste 0 935.7 0.4 93
2019-11-21 18:00:00 10.1 4 Sudoeste 14 Sudoeste 0.4 935.5 0.1 93
2019-11-21 17:00:00 10.5 8 Sudoeste 15 Sudoeste 0 935.4 -0.5 89
2019-11-21 16:00:00 10.7 6 Sudoeste 21 Sudoeste 0.2 935.3 -0.8 91
2019-11-21 15:00:00 10.7 11 Sudoeste 24 Oeste 0.2 935.4 -1.5 89
2019-11-21 14:00:00 10.7 13 Sudoeste 26 Oeste 0.6 935.9 -1.2 90
2019-11-21 13:00:00 11 5 Sudoeste 22 Sur 0 936.1 -0.9 89
2019-11-21 12:00:00 10.6 10 Sur 20 Sur 0 936.9 0.1 85
2019-11-21 11:00:00 9.8 6 Sur 14 Sur 0 937.1 0.4 90
2019-11-21 10:00:00 9 7 Sudoeste 14 Sur 0 937 0.7 92
2019-11-21 09:00:00 8.4 5 Sur 11 Sur 0 936.8 0.6 94
2019-11-21 08:00:00 8.1 5 Sudoeste 17 Sudoeste 0 936.7 0.3 95
2019-11-21 07:00:00 8 8 Sudoeste 16 Sudoeste 0 936.3 -0.5 96
2019-11-21 06:00:00 8 8 Sudoeste 15 Oeste 0 936.2 -0.7 95
2019-11-21 05:00:00 7.6 5 Sudoeste 13 Sudoeste 0 936.4 -0.4 95
2019-11-21 04:00:00 7.5 6 Sudoeste 14 Sur 0 936.8 -0.4 96
2019-11-21 03:00:00 7.3 6 Sudoeste 13 Oeste 0 936.9 -0.2 97
2019-11-21 02:00:00 7.2 6 Sudoeste 12 Sudoeste 0 936.8 -0.4 96
2019-11-21 01:00:00 7.6 5 Sudoeste 19 Sudoeste 0.4 937.2 0.4 95
2019-11-21 00:00:00 7.6 5 Sudoeste 13 Sudoeste 0 937.1 0.3 94
2019-11-20 23:00:00 7.6 9 Oeste 15 Sudoeste 0 937.2 0.5 96
2019-11-20 22:00:00 7.4 5 Sudoeste 15 Sudoeste 0 936.8 0.3 96
2019-11-20 21:00:00 6.9 6 Sur 11 Sur 0 936.8 0.2 97
2019-11-20 20:00:00 6.8 6 Sudeste 14 Sur 0 936.7 -0.3 96
2019-11-20 19:00:00 7 5 Sudeste 17 Sur 0.4 936.5 -0.2 96
2019-11-20 18:00:00 7.2 8 Sur 14 Sur 2.6 936.6 -0.3 95
2019-11-20 17:00:00 7.5 5 Sur 11 Sur 1.8 937 -0.4 93
2019-11-20 16:00:00 7.8 4 Sur 13 Sur 0.8 936.7 -1.7 91
2019-11-20 15:00:00 8.1 9 Sur 19 Sur 0.4 936.9 -2.3 82
2019-11-20 14:00:00 9.2 8 Sudoeste 21 Sudoeste 0.2 937.4 -1.9 74
2019-11-20 13:00:00 8.7 7 Sudoeste 13 Oeste 0 938.4 -1.2 73
2019-11-20 12:00:00 7.8 4 Oeste 8 Oeste 0 939.2 -0.3 76
2019-11-20 11:00:00 6.1 2 Este 6 Norte 0 939.3 0 87
2019-11-20 10:00:00 4.4 2 Oeste 12 Sur 0 939.6 0.3 92
2019-11-20 09:00:00 2.2 4 Sudeste 9 Sudeste 0 939.5 -0.1 98
2019-11-20 08:00:00 2 4 Sudeste 9 Sur 0 939.3 -0.6 97
2019-11-20 07:00:00 2 2 Sudeste 6 Este 0 939.3 -1.2 97
2019-11-20 06:00:00 1.6 0 Calma 4 Nordeste 0 939.6 -1.1 95
2019-11-20 05:00:00 2.1 2 Norte 4 Nordeste 0 939.9 -1.3 94
2019-11-20 04:00:00 2.7 0 Calma 4 Sur 0 940.5 -1 94
2019-11-20 03:00:00 3.2 3 Sudeste 3 Este 0 940.7 -1.3 91
2019-11-20 02:00:00 3.9 2 Sudoeste 7 Sur 0 941.2 -1.3 93
2019-11-20 01:00:00 4.2 2 Sur 4 Sudeste 0 941.5 -1.3 91
2019-11-20 00:00:00 5 0 Calma 4 Oeste 0 942 -0.8 87
2019-11-19 23:00:00 6.3 2 Sudoeste 8 Sudoeste 0 942.5 -0.3 82
2019-11-19 22:00:00 7.1 4 Sudoeste 8 Oeste 0 942.8 0.1 79
2019-11-19 21:00:00 7.8 3 Oeste 9 Sudoeste 0 942.8 0.4 76
2019-11-19 20:00:00 8.2 5 Sudoeste 11 Oeste 0 942.8 0.3 72
2019-11-19 19:00:00 8.8 6 Oeste 10 Sudoeste 0 942.7 -0.1 69
2019-11-19 18:00:00 9.6 5 Oeste 12 Sudoeste 0 942.4 -0.7 66
2019-11-19 17:00:00 10.4 3 Oeste 13 Noroeste 0 942.5 -1.1 62
2019-11-19 16:00:00 10.8 8 Oeste 19 Oeste 0 942.8 -1.9 58
2019-11-19 15:00:00 11.2 5 Oeste 14 Oeste 0 943.1 -2.4 60
2019-11-19 14:00:00 10.4 6 Oeste 14 Oeste 0 943.6 -2.2 63
2019-11-19 13:00:00 9.2 3 Noroeste 8 Oeste 0 944.7 -1.2 67
2019-11-19 12:00:00 7.2 3 Este 7 Nordeste 0 945.5 0 75
2019-11-19 11:00:00 4.4 4 Nordeste 6 Nordeste 0 945.8 0.6 88
2019-11-19 10:00:00 2.6 3 Este 5 Este 0 945.9 1 95
2019-11-19 09:00:00 1.1 4 Oeste 8 Noroeste 0 945.5 0.9 98
2019-11-19 08:00:00 0 2 Norte 4 Sur 0 945.2 0.6 97
2019-11-19 07:00:00 -0.1 3 Sur 5 Sudeste 0 944.9 0.1 96
2019-11-19 06:00:00 0.2 2 Este 5 Este 0 944.6 -0.3 95
2019-11-19 05:00:00 0.6 3 Este 5 Este 0 944.6 -0.5 95
2019-11-19 04:00:00 1.2 3 Noroeste 7 Noroeste 0 944.8 -0.6 94
2019-11-19 03:00:00 1.7 0 Calma 5 Sudoeste 0 944.9 -0.2 93
2019-11-19 02:00:00 2.1 0 Calma 8 Sudeste 0 945.1 -0.3 92
2019-11-19 01:00:00 2.8 3 Noroeste 6 Este 0 945.4 0.4 89
2019-11-19 00:00:00 3.6 4 Oeste 9 Oeste 0 945.1 0.6 88
2019-11-18 23:00:00 4.6 2 Noroeste 8 Sudoeste 0 945.4 1.2 83
2019-11-18 22:00:00 5.9 3 Oeste 8 Sudoeste 0 945 1.3 75
2019-11-18 21:00:00 6.9 2 Nordeste 15 Noroeste 0 944.5 1.5 71
2019-11-18 20:00:00 7.5 5 Noroeste 10 Norte 0 944.2 1.7 68
2019-11-18 19:00:00 8.6 3 Norte 11 Noroeste 0 943.7 1.6 65
2019-11-18 18:00:00 10.2 6 Norte 17 Noroeste 0 943 0.9 56
2019-11-18 17:00:00 11.3 7 Noroeste 18 Norte 0 942.5 0.5 50
2019-11-18 16:00:00 11.2 7 Oeste 15 Noroeste 0 942.1 -0.1 51
2019-11-18 15:00:00 11.8 7 Noroeste 19 Noroeste 0 942.1 -0.1 50
2019-11-18 14:00:00 12.2 8 Noroeste 16 Noroeste 0 942 0 53
2019-11-18 13:00:00 11.2 5 Noroeste 14 Oeste 0 942.2 0.6 55
2019-11-18 12:00:00 9.8 5 Oeste 12 Oeste 0 942.2 1.6 69
2019-11-18 11:00:00 8.3 5 Noroeste 15 Noroeste 0 942 2.3 71
2019-11-18 10:00:00 6.3 2 Este 10 Oeste 0 941.6 2.4 81
2019-11-18 09:00:00 4.5 3 Noroeste 10 Sudoeste 0 940.6 1.8 89
2019-11-18 08:00:00 4.9 9 Noroeste 25 Noroeste 0 939.7 1.5 83
2019-11-18 07:00:00 5 15 Noroeste 25 Noroeste 0 939.2 1.4 84
2019-11-18 06:00:00 4.8 8 Noroeste 16 Norte 0 938.8 1.1 89
2019-11-18 05:00:00 5.6 9 Norte 16 Norte 0 938.2 0.7 87
2019-11-18 04:00:00 6.5 5 Norte 8 Norte 0 937.8 0.4 98
2019-11-18 03:00:00 7 5 Norte 13 Noroeste 0.2 937.7 0.1 97
2019-11-18 02:00:00 7.7 7 Norte 26 Noroeste 0 937.5 0 95
2019-11-18 01:00:00 8.6 9 Noroeste 23 Noroeste 0 937.4 -0.3 96
2019-11-18 00:00:00 9 8 Noroeste 16 Noroeste 0.2 937.6 -0.2 97
2019-11-17 23:00:00 9 9 Sudoeste 20 Sudoeste 4.4 937.5 -1.5 97
2019-11-17 22:00:00 8.9 4 Sudoeste 22 Noroeste 6 937.7 -1.8 97
2019-11-17 21:00:00 8.7 9 Sudoeste 22 Sudoeste 0.6 937.8 -2.4 97
2019-11-17 20:00:00 8.8 10 Sudoeste 24 Sudoeste 2.2 939 -1.4 96
2019-11-17 19:00:00 8.9 8 Sudoeste 22 Sudoeste 0 939.5 -1.4 95
2019-11-17 18:00:00 8.7 9 Sudoeste 21 Sudoeste 0 940.2 -1.2 93
2019-11-17 17:00:00 8.8 10 Sudoeste 30 Oeste 0 940.4 -1.8 92
2019-11-17 16:00:00 8.9 12 Oeste 29 Sudoeste 0 940.9 -2.2 88
2019-11-17 15:00:00 8.2 13 Sudoeste 31 Oeste 0 941.4 -2.6 91
2019-11-17 14:00:00 7.9 13 Sudoeste 26 Oeste 0 942.2 -2.1 88
2019-11-17 13:00:00 7.3 13 Sudoeste 24 Oeste 0 943.1 -1 85
2019-11-17 12:00:00 6.1 10 Sudoeste 22 Oeste 0 944 -0.1 89
2019-11-17 11:00:00 4.9 9 Sudoeste 22 Sudoeste 0 944.3 0.4 94
2019-11-17 10:00:00 4.4 10 Sudoeste 21 Sudoeste 0 944.1 0.4 90
2019-11-17 09:00:00 3.8 8 Sudoeste 21 Sudoeste 0 944.1 0.5 84
2019-11-17 08:00:00 3.2 7 Sudoeste 17 Sudoeste 0 943.9 0.1 85
2019-11-17 07:00:00 2.9 9 Sudoeste 20 Oeste 0 943.7 0.1 85
2019-11-17 06:00:00 2.5 6 Sudoeste 12 Sudoeste 0 943.6 0 83
2019-11-17 05:00:00 2.8 3 Oeste 11 Oeste 0 943.8 -0.2 81
2019-11-17 04:00:00 3.4 4 Oeste 13 Sudoeste 0 943.6 -0.4 76
2019-11-17 03:00:00 3.6 3 Noroeste 13 Sudoeste 0 943.6 -0.6 75
2019-11-17 02:00:00 3.9 3 Oeste 15 Oeste 0 944 -0.4 73
2019-11-17 01:00:00 4.2 7 Oeste 17 Oeste 0 944 -0.2 71
2019-11-17 00:00:00 4.5 4 Oeste 13 Noroeste 0 944.2 0.1 69
2019-11-16 23:00:00 4.9 4 Oeste 14 Sudoeste 0 944.4 0.4 67
2019-11-16 22:00:00 5.3 8 Sudoeste 17 Sudoeste 0 944.2 0.7 65
2019-11-16 21:00:00 6.2 8 Sudoeste 17 Oeste 0 944.1 1 62
2019-11-16 20:00:00 6.8 9 Sudoeste 17 Oeste 0 944 1.3 59
2019-11-16 19:00:00 7.7 8 Oeste 22 Oeste 0 943.5 1.3 56
2019-11-16 18:00:00 9.1 8 Oeste 23 Sudoeste 0 943.1 1.3 47
2019-11-16 17:00:00 10.4 14 Oeste 25 Oeste 0 942.7 0.6 45
2019-11-16 16:00:00 11.1 9 Oeste 21 Oeste 0 942.2 0 44
2019-11-16 15:00:00 10.8 10 Noroeste 21 Oeste 0 941.8 -1 40
2019-11-16 14:00:00 10.7 7 Oeste 19 Oeste 0 942.1 -0.4 44
2019-11-16 13:00:00 9.9 6 Oeste 21 Oeste 0 942.2 0.3 51
2019-11-16 12:00:00 8 4 Sudoeste 11 Oeste 0 942.8 1.7 56
2019-11-16 11:00:00 5.8 5 Oeste 10 Oeste 0 942.5 1.9 66
2019-11-16 10:00:00 3.3 4 Sur 8 Oeste 0 941.9 2.6 76
2019-11-16 09:00:00 0.9 2 Este 10 Sudoeste 0 941.1 2.6 85
2019-11-16 08:00:00 0.7 2 Sudoeste 7 Oeste 0 940.6 2.8 85
2019-11-16 07:00:00 1.3 3 Oeste 9 Sudoeste 0 939.3 1.9 83
2019-11-16 06:00:00 1.9 3 Oeste 10 Oeste 0 938.5 1.6 81
2019-11-16 05:00:00 1.8 4 Sudoeste 11 Sudoeste 0 937.8 1.4 82
2019-11-16 04:00:00 2.4 4 Oeste 9 Sudoeste 0 937.4 1.2 79
2019-11-16 03:00:00 2.6 6 Sudoeste 12 Sudoeste 0 936.9 0.9 79
2019-11-16 02:00:00 3.1 4 Sudoeste 12 Oeste 0 936.4 0.6 76
2019-11-16 01:00:00 3.6 5 Oeste 14 Oeste 0 936.2 0.7 76
2019-11-16 00:00:00 4.1 8 Oeste 14 Sudoeste 0 936 1.2 76
2019-11-15 23:00:00 4.5 8 Oeste 14 Oeste 0 935.8 1.4 75
2019-11-15 22:00:00 5.2 4 Oeste 15 Sudoeste 0 935.5 1.4 72
2019-11-15 21:00:00 6 6 Oeste 19 Oeste 0 934.8 1.1 69
2019-11-15 20:00:00 6.7 9 Sudoeste 17 Sudoeste 0 934.4 0.9 66
2019-11-15 19:00:00 7.4 8 Sudoeste 17 Sudoeste 0 934.1 0.9 62
2019-11-15 18:00:00 7.9 9 Oeste 21 Oeste 0 933.7 0.5 62
2019-11-15 17:00:00 8.7 7 Oeste 21 Sudoeste 0 933.5 0.2 55
2019-11-15 16:00:00 9 12 Oeste 25 Sudoeste 0 933.2 -0.3 56
2019-11-15 15:00:00 8.9 9 Oeste 21 Oeste 0 933.2 -1.1 55
2019-11-15 14:00:00 10.3 9 Oeste 21 Oeste 0 933.3 -0.9 51
2019-11-15 13:00:00 8.8 10 Oeste 24 Oeste 0 933.5 -0.7 58
2019-11-15 12:00:00 7.2 9 Oeste 21 Oeste 0 934.3 0.5 70
2019-11-15 11:00:00 5.4 8 Oeste 26 Oeste 0 934.2 0.7 75
2019-11-15 10:00:00 4.3 8 Oeste 21 Oeste 0 934.2 1.2 81
2019-11-15 09:00:00 3.4 7 Oeste 20 Sudoeste 0 933.8 1.3 83
2019-11-15 08:00:00 2.9 9 Sudoeste 20 Sudoeste 0 933.5 1.1 86
2019-11-15 07:00:00 3.3 9 Sudoeste 22 Sudoeste 0 933 0.7 84
2019-11-15 06:00:00 3.7 13 Sudoeste 22 Sudoeste 0 932.5 0 84
2019-11-15 05:00:00 4.3 9 Sudoeste 22 Sudoeste 0 932.4 0.2 82
2019-11-15 04:00:00 4.7 9 Oeste 28 Oeste 0 932.3 0 81
2019-11-15 03:00:00 5 6 Sudoeste 20 Sudoeste 0 932.5 0.3 81
2019-11-15 02:00:00 5.6 10 Oeste 31 Oeste 0 932.2 -0.2 80
2019-11-15 01:00:00 6.3 12 Oeste 33 Oeste 0 932.3 0.6 76
2019-11-15 00:00:00 7 12 Oeste 33 Oeste 0 932.2 0.4 77
2019-11-14 23:00:00 7.3 13 Oeste 34 Oeste 0 932.4 0.8 76
2019-11-14 22:00:00 7.8 13 Oeste 44 Sudoeste 0 931.7 0.4 71
2019-11-14 21:00:00 8 15 Oeste 43 Oeste 0 931.8 0.7 71
2019-11-14 20:00:00 8 12 Oeste 40 Oeste 0 931.6 0.6 70
2019-11-14 19:00:00 9.6 14 Oeste 42 Oeste 0 931.3 0.1 59
2019-11-14 18:00:00 8.7 15 Oeste 53 Oeste 0 931.1 -0.5 59
2019-11-14 17:00:00 9.4 19 Oeste 48 Oeste 0 931 -0.9 56
2019-11-14 16:00:00 10.5 15 Oeste 45 Oeste 0 931.2 -1.4 54
2019-11-14 15:00:00 10.7 15 Oeste 50 Oeste 0 931.6 -2.1 57
2019-11-14 14:00:00 10.2 15 Oeste 42 Noroeste 0 931.9 -1.9 66
2019-11-14 13:00:00 8.3 13 Oeste 31 Oeste 0 932.6 -1.1 83
2019-11-14 12:00:00 7.9 12 Oeste 31 Oeste 0.8 933.7 -0.2 89
2019-11-14 11:00:00 7.8 15 Noroeste 45 Noroeste 1.2 933.8 -0.1 85
2019-11-14 10:00:00 8.9 15 Oeste 33 Sudoeste 0.6 933.7 -0.9 94
2019-11-14 09:00:00 8.7 15 Sudoeste 32 Oeste 0.2 933.9 -1.8 93
2019-11-14 08:00:00 8.8 13 Sudoeste 45 Oeste 0 933.9 -2.2 88
2019-11-14 07:00:00 8.8 13 Sudoeste 31 Oeste 0 934.6 -2.3 81
2019-11-14 06:00:00 8.7 16 Sudoeste 35 Sudoeste 0 935.7 -1.8 80
2019-11-14 05:00:00 8.8 18 Oeste 43 Oeste 0 936.1 -2.5 80
2019-11-14 04:00:00 9.4 15 Oeste 35 Sudoeste 0 936.9 -2.1 79
2019-11-14 03:00:00 9.9 11 Oeste 38 Oeste 0 937.5 -1.9 84
2019-11-14 02:00:00 10.6 15 Oeste 36 Sudoeste 0 938.6 -1.5 83
2019-11-14 01:00:00 11.3 18 Oeste 33 Oeste 0 939 -1.6 82
2019-11-14 00:00:00 11.8 6 Sudoeste 24 Sudoeste 0 939.4 -1.1 82
2019-11-13 23:00:00 12.4 15 Sudoeste 26 Oeste 0 940.1 -0.8 80
2019-11-13 22:00:00 12.9 14 Sudoeste 24 Oeste 0 940.6 0.1 77
2019-11-13 21:00:00 13.7 14 Sudoeste 27 Oeste 0 940.5 -0.1 75
2019-11-13 20:00:00 13.8 7 Oeste 18 Oeste 0 940.9 0.4 72
2019-11-13 19:00:00 14.7 10 Sudoeste 23 Sudoeste 0 940.5 0.3 66
2019-11-13 18:00:00 15.7 10 Oeste 26 Sudoeste 0 940.6 0.9 63
2019-11-13 17:00:00 16.9 11 Oeste 31 Oeste 0 940.5 0.6 59
2019-11-13 16:00:00 17.7 14 Oeste 29 Sudoeste 0 940.2 0 57
2019-11-13 15:00:00 17.7 13 Oeste 35 Sudoeste 0 939.7 -0.6 57
2019-11-13 14:00:00 17.2 18 Oeste 35 Noroeste 0 939.9 0.3 64
2019-11-13 13:00:00 16.6 13 Oeste 32 Oeste 0 940.2 1.2 67
2019-11-13 12:00:00 15.3 13 Oeste 37 Sudoeste 0 940.3 2.5 75
2019-11-13 11:00:00 14.1 9 Oeste 28 Oeste 0 939.6 2.1 81
2019-11-13 10:00:00 12.8 10 Oeste 36 Oeste 0 939 1.8 90
2019-11-13 09:00:00 11.8 17 Oeste 37 Oeste 0 937.8 0.3 93
2019-11-13 08:00:00 11.2 13 Oeste 32 Oeste 0 937.5 -0.1 94
2019-11-13 07:00:00 11.1 19 Oeste 33 Oeste 0 937.2 -0.7 94
2019-11-13 06:00:00 11.1 18 Oeste 39 Sudoeste 0 937.5 -0.7 91
2019-11-13 05:00:00 11.2 17 Sudoeste 40 Oeste 0 937.6 -1.1 88
2019-11-13 04:00:00 11.4 15 Oeste 44 Sudoeste 0 937.9 -1.6 84
2019-11-13 03:00:00 11.1 16 Oeste 36 Oeste 0 938.2 -2 87
2019-11-13 02:00:00 10.8 14 Oeste 29 Oeste 0 938.7 -1.9 85
2019-11-13 01:00:00 10.3 9 Oeste 27 Oeste 0 939.5 -1.7 80
2019-11-13 00:00:00 9.9 9 Sudoeste 26 Sudoeste 0 940.2 -1 72
2019-11-12 23:00:00 9.3 10 Sudoeste 23 Sudoeste 0 940.6 -0.9 69
2019-11-12 22:00:00 8.8 4 Sur 20 Sudoeste 0 941.2 -0.3 73
2019-11-12 21:00:00 9.3 8 Sudoeste 18 Oeste 0 941.2 -0.6 72
2019-11-12 20:00:00 9.6 6 Oeste 19 Oeste 0 941.5 -0.3 73
2019-11-12 19:00:00 10.4 10 Oeste 19 Oeste 0 941.5 -0.3 68
2019-11-12 18:00:00 11.6 6 Oeste 24 Oeste 0 941.8 -0.4 63
2019-11-12 17:00:00 12.3 9 Oeste 22 Noroeste 0 941.8 -1.1 62
2019-11-12 16:00:00 13.1 9 Oeste 21 Oeste 0 941.8 -1.5 54
2019-11-12 15:00:00 12.9 7 Oeste 21 Noroeste 0 942.2 -1.8 57
2019-11-12 14:00:00 13.1 8 Oeste 19 Oeste 0 942.9 -1.4 54
2019-11-12 13:00:00 11.6 5 Sur 12 Oeste 0 943.3 -0.6 60
2019-11-12 12:00:00 10.6 7 Noroeste 11 Noroeste 0 944 0 58
2019-11-12 11:00:00 8.8 4 Oeste 8 Sudoeste 0 944.3 0.8 85
2019-11-12 10:00:00 6.8 3 Sur 9 Oeste 0 943.9 0.7 100
2019-11-12 09:00:00 5.9 3 Sudoeste 6 Oeste 0 944 0.1 100
2019-11-12 08:00:00 5.6 0 Calma 7 Sur 0 943.5 0.2 99
2019-11-12 07:00:00 6 3 Sudoeste 7 Sur 0 943.2 -0.8 99
2019-11-12 06:00:00 5.8 0 Calma 8 Sur 0 943.9 0 99
2019-11-12 05:00:00 6 3 Sur 12 Oeste 0 943.3 -1 99
2019-11-12 04:00:00 6 4 Oeste 11 Oeste 0 944 -0.6 99
2019-11-12 03:00:00 6.3 4 Sudeste 6 Sudeste 0 943.9 -0.8 98
2019-11-12 02:00:00 6.5 2 Oeste 9 Sudoeste 0 944.3 -0.3 98
2019-11-12 01:00:00 7 2 Oeste 11 Noroeste 0 944.6 0 98
2019-11-12 00:00:00 7.4 6 Noroeste 12 Noroeste 0 944.7 0.7 97
2019-11-11 23:00:00 7.9 4 Noroeste 10 Oeste 0 944.6 0.7 95
2019-11-11 22:00:00 8.5 5 Noroeste 12 Oeste 0 944.6 1 95
2019-11-11 21:00:00 8.9 3 Sudoeste 8 Oeste 0 944 0.5 92
2019-11-11 20:00:00 9.8 3 Oeste 13 Noroeste 0 943.9 0.5 89
2019-11-11 19:00:00 10.7 4 Noroeste 13 Noroeste 0 943.6 0.6 86
2019-11-11 18:00:00 11.2 5 Noroeste 17 Noroeste 0 943.5 0.2 83
2019-11-11 17:00:00 11.8 11 Noroeste 22 Oeste 0 943.4 0.1 80
2019-11-11 16:00:00 11.3 6 Oeste 16 Oeste 0 943 -1.4 82
2019-11-11 15:00:00 10.6 6 Oeste 24 Noroeste 0 943.3 -1.5 83
2019-11-11 14:00:00 10.3 8 Oeste 26 Noroeste 0 943.3 -1.9 81
2019-11-11 13:00:00 10.1 6 Oeste 23 Oeste 0 944.4 -0.9 81
2019-11-11 12:00:00 9.8 9 Oeste 27 Noroeste 0 944.8 -0.6 80
2019-11-11 11:00:00 9.3 16 Oeste 31 Oeste 0 945.2 -0.1 83
2019-11-11 10:00:00 8.1 8 Noroeste 15 Noroeste 0 945.3 0 86
2019-11-11 09:00:00 6.7 4 Sudoeste 9 Sur 0 945.4 0.4 90
2019-11-11 08:00:00 6.6 5 Sudoeste 11 Oeste 0 945.3 -0.1 90
2019-11-11 07:00:00 6 5 Sudoeste 13 Sudoeste 0 945.3 0.1 90
2019-11-11 06:00:00 5.6 8 Oeste 15 Sudoeste 0 945 -0.5 89
2019-11-11 05:00:00 5 4 Oeste 12 Oeste 0 945.4 -0.9 88
2019-11-11 04:00:00 5.2 4 Oeste 11 Sudoeste 0 945.2 -1.1 86
2019-11-11 03:00:00 5.2 4 Sudoeste 10 Sudoeste 0 945.5 -0.5 85
2019-11-11 02:00:00 5.7 5 Sur 10 Sur 0 946.3 0.3 83
2019-11-11 01:00:00 6.6 6 Noroeste 18 Noroeste 0 946.3 0.9 79
2019-11-11 00:00:00 6.6 8 Noroeste 18 Oeste 0 946 0.4 78